Terminal Aerodrome Forecast
Issued by NWS Springfield, MO

Home | Current Version | Previous Version | Text Only | Print | Product List | Glossary On
Versions: 1 2 3 4 5 6 7 8 9 10 11 12 13 14 15
000
FTUS43 KSGF 120524
TAFSGF
TAF
KSGF 120524Z 1206/1306 34020G30KT P6SM BKN035
     FM120800 34017G27KT P6SM FEW040 SCT200
     FM121400 33011KT P6SM FEW200
     FM121800 30011KT P6SM SKC
     FM122300 27010KT P6SM FEW250
     FM130200 24006KT P6SM FEW250=

USA.gov is the U.S. government's official web portal to all federal, state and local government web resources and services.